createdAt,value
2022-10-06T00:00:43.570Z,101182.44
2022-10-06T00:03:10.493Z,101177.97
2022-10-06T00:05:37.411Z,101175.25
2022-10-06T00:08:04.341Z,101184.13
2022-10-06T00:10:31.480Z,101180.50
2022-10-06T00:12:58.754Z,101192.13
2022-10-06T00:15:28.413Z,101186.66
2022-10-06T00:17:55.886Z,101197.41
2022-10-06T00:20:23.548Z,101194.69
2022-10-06T00:22:50.326Z,101200.94
2022-10-06T00:25:19.369Z,101204.47
2022-10-06T00:27:47.870Z,101214.34
2022-10-06T00:30:20.825Z,101240.41
2022-10-06T00:32:52.872Z,101256.81
2022-10-06T00:35:20.327Z,101286.72
2022-10-06T00:37:48.899Z,101298.81
2022-10-06T00:40:15.830Z,101317.13
2022-10-06T00:43:04.403Z,101331.03
2022-10-06T00:45:43.367Z,101350.19
2022-10-06T00:48:14.611Z,101355.97
2022-10-06T00:50:42.104Z,101363.53
2022-10-06T00:53:08.820Z,101371.00
2022-10-06T00:55:35.564Z,101376.69
2022-10-06T00:58:02.274Z,101375.16
2022-10-06T01:00:29.037Z,101380.81
2022-10-06T01:02:59.779Z,101364.06
2022-10-06T01:05:29.718Z,101362.47
2022-10-06T01:07:56.690Z,101361.66
2022-10-06T01:10:23.464Z,101354.66
2022-10-06T01:12:50.707Z,101357.34
2022-10-06T01:15:18.646Z,101355.56
2022-10-06T01:17:53.733Z,101359.22
2022-10-06T01:20:21.676Z,101364.56
2022-10-06T01:22:51.390Z,101382.44
2022-10-06T01:25:18.931Z,101377.06
2022-10-06T01:27:50.666Z,101366.34
2022-10-06T01:30:21.001Z,101378.78
2022-10-06T01:32:47.744Z,101391.31
2022-10-06T01:35:14.542Z,101388.66
2022-10-06T01:37:41.283Z,101407.38
2022-10-06T01:40:08.791Z,101395.81
2022-10-06T01:42:36.362Z,101389.56
2022-10-06T01:45:04.218Z,101396.66
2022-10-06T01:47:31.157Z,101414.50
2022-10-06T01:49:57.841Z,101425.22
2022-10-06T01:52:25.102Z,101429.69
2022-10-06T01:54:52.593Z,101435.03
2022-10-06T01:57:21.234Z,101442.16
2022-10-06T01:59:51.544Z,101441.25
2022-10-06T02:02:21.269Z,101447.44
2022-10-06T02:04:48.435Z,101449.25
2022-10-06T02:07:15.145Z,101451.91
2022-10-06T02:09:41.874Z,101443.00
2022-10-06T02:12:08.577Z,101440.31
2022-10-06T02:14:35.299Z,101444.84
2022-10-06T02:17:02.222Z,101446.63
2022-10-06T02:19:28.945Z,101449.31
2022-10-06T02:21:55.854Z,101450.22
2022-10-06T02:24:22.751Z,101457.34
2022-10-06T02:26:49.542Z,101467.19
2022-10-06T02:29:16.298Z,101480.63
2022-10-06T02:31:43.118Z,101476.19
2022-10-06T02:34:10.120Z,101481.59
2022-10-06T02:36:36.935Z,101491.50
2022-10-06T02:39:04.197Z,101493.34
2022-10-06T02:41:31.779Z,101505.03
2022-10-06T02:43:58.814Z,101503.31
2022-10-06T02:46:25.902Z,101514.97
2022-10-06T02:48:53.855Z,101529.31
2022-10-06T02:51:21.634Z,101537.38
2022-10-06T02:53:49.241Z,101541.91
2022-10-06T02:56:19.037Z,101547.28
2022-10-06T02:58:47.822Z,101566.06
2022-10-06T03:01:24.046Z,101566.13
2022-10-06T03:03:51.115Z,101569.72
2022-10-06T03:06:23.308Z,101579.56
2022-10-06T03:08:55.437Z,101584.09
2022-10-06T03:11:27.277Z,101588.56
2022-10-06T03:13:55.713Z,101601.03
2022-10-06T03:16:25.352Z,101592.16
2022-10-06T03:18:54.673Z,101597.53
2022-10-06T03:21:23.613Z,101598.44
2022-10-06T03:23:52.211Z,101594.00
2022-10-06T03:26:21.747Z,101601.16
2022-10-06T03:28:48.673Z,101602.09
2022-10-06T03:31:16.046Z,101611.91
2022-10-06T03:33:42.863Z,101601.25
2022-10-06T03:36:14.750Z,101616.41
2022-10-06T03:38:42.004Z,101612.00
2022-10-06T03:41:11.281Z,101613.78
2022-10-06T03:43:38.723Z,101619.16
2022-10-06T03:46:06.415Z,101620.97
2022-10-06T03:48:35.312Z,101629.00
2022-10-06T03:51:03.826Z,101626.34
2022-10-06T03:53:31.518Z,101629.94
2022-10-06T03:56:05.623Z,101646.00
2022-10-06T03:58:35.520Z,101643.31
2022-10-06T04:01:07.039Z,101646.03
2022-10-06T04:03:34.619Z,101662.03
2022-10-06T04:06:03.994Z,101642.47
2022-10-06T04:08:32.148Z,101658.53
2022-10-06T04:11:16.667Z,101656.75
2022-10-06T04:13:44.447Z,101654.97
2022-10-06T04:16:11.269Z,101658.53
2022-10-06T04:18:38.282Z,101673.69
2022-10-06T04:21:05.438Z,101681.69
2022-10-06T04:23:32.525Z,101682.59
2022-10-06T04:26:06.418Z,101678.13
2022-10-06T04:28:33.854Z,101678.13
2022-10-06T04:31:01.441Z,101694.16
2022-10-06T04:33:28.592Z,101688.78
2022-10-06T04:36:03.868Z,101705.72
2022-10-06T04:38:35.181Z,101713.75
2022-10-06T04:41:11.547Z,101706.63
2022-10-06T04:43:38.302Z,101711.09
2022-10-06T04:46:18.393Z,101714.66
2022-10-06T04:48:53.287Z,101716.47
2022-10-06T04:51:21.822Z,101731.59
2022-10-06T04:53:48.706Z,101735.19
2022-10-06T04:56:41.785Z,101724.50
2022-10-06T04:59:08.518Z,101730.78
2022-10-06T05:01:36.532Z,101745.97
2022-10-06T05:04:05.020Z,101754.00
2022-10-06T05:06:37.344Z,101767.38
2022-10-06T05:09:08.584Z,101763.84
2022-10-06T05:11:35.377Z,101780.78
2022-10-06T05:14:02.125Z,101779.88
2022-10-06T05:16:30.129Z,101791.47
2022-10-06T05:18:57.260Z,101798.56
2022-10-06T05:21:26.470Z,101803.03
2022-10-06T05:23:53.184Z,101811.00
2022-10-06T05:26:22.379Z,101825.28
2022-10-06T05:28:49.287Z,101823.50
2022-10-06T05:31:19.115Z,101832.38
2022-10-06T05:33:46.779Z,101835.06
2022-10-06T05:36:19.971Z,101844.84
2022-10-06T05:38:47.303Z,101856.44
2022-10-06T05:41:16.845Z,101864.47
2022-10-06T05:43:44.852Z,101856.44
2022-10-06T05:46:19.948Z,101868.06
2022-10-06T05:48:51.690Z,101861.84
2022-10-06T05:51:20.089Z,101871.63
2022-10-06T05:53:48.495Z,101880.56
2022-10-06T05:56:20.284Z,101888.59
2022-10-06T05:58:48.797Z,101893.06
2022-10-06T06:01:23.421Z,101905.53
2022-10-06T06:03:59.457Z,101901.09
2022-10-06T06:06:28.243Z,101922.47
2022-10-06T06:09:19.810Z,101924.25
2022-10-06T06:11:48.132Z,101918.88
2022-10-06T06:14:18.451Z,101923.34
2022-10-06T06:16:46.477Z,101929.56
2022-10-06T06:19:14.155Z,101937.56
2022-10-06T06:21:40.874Z,101941.13
2022-10-06T06:24:07.629Z,101950.03
2022-10-06T06:26:36.917Z,101947.34
2022-10-06T06:29:05.270Z,101957.19
2022-10-06T06:31:37.440Z,101957.16
2022-10-06T06:34:06.674Z,101974.06
2022-10-06T06:36:40.964Z,101969.59
2022-10-06T06:39:13.138Z,101983.88
2022-10-06T06:41:47.248Z,101979.41
2022-10-06T06:44:14.175Z,101991.88
2022-10-06T06:46:49.444Z,101989.19
2022-10-06T06:49:16.869Z,101995.41
2022-10-06T06:51:45.088Z,101998.06
2022-10-06T06:54:12.851Z,102000.72
2022-10-06T06:56:39.750Z,102004.28
2022-10-06T06:59:08.921Z,102022.09
2022-10-06T07:01:35.842Z,102013.16
2022-10-06T07:04:02.880Z,102032.75
2022-10-06T07:06:31.095Z,102034.53
2022-10-06T07:08:59.336Z,102039.00
2022-10-06T07:11:34.491Z,102036.28
2022-10-06T07:14:12.719Z,102045.19
2022-10-06T07:16:58.163Z,102046.97
2022-10-06T07:19:42.985Z,102049.63
2022-10-06T07:22:28.305Z,102054.91
2022-10-06T07:25:08.587Z,102059.22
2022-10-06T07:27:46.923Z,102064.44
2022-10-06T07:30:19.629Z,102069.69
2022-10-06T07:32:47.569Z,102076.72
2022-10-06T07:35:15.479Z,102069.50
2022-10-06T07:37:42.682Z,102080.19
2022-10-06T07:40:10.149Z,102071.25
2022-10-06T07:42:49.027Z,102084.66
2022-10-06T07:45:39.206Z,102095.44
2022-10-06T07:48:09.808Z,102101.69
2022-10-06T07:50:40.359Z,102112.41
2022-10-06T07:53:09.671Z,102101.72
2022-10-06T07:55:37.304Z,102109.81
2022-10-06T07:58:04.096Z,102107.16
2022-10-06T08:00:31.001Z,102123.28
2022-10-06T08:02:57.811Z,102124.22
2022-10-06T08:05:24.601Z,102122.47
2022-10-06T08:07:52.227Z,102126.97
2022-10-06T08:10:20.729Z,102137.72
2022-10-06T08:15:14.554Z,102138.66
2022-10-06T08:17:41.594Z,102146.66
2022-10-06T08:20:11.034Z,102160.97
2022-10-06T08:22:39.986Z,102160.94
2022-10-06T08:25:09.282Z,102162.69
2022-10-06T08:27:37.151Z,102176.06
2022-10-06T08:30:05.903Z,102180.53
2022-10-06T08:32:33.171Z,102170.72
2022-10-06T08:34:59.914Z,102176.97
2022-10-06T08:37:27.251Z,102177.81
2022-10-06T08:39:54.870Z,102176.03
2022-10-06T08:42:28.491Z,102174.22
2022-10-06T08:45:00.954Z,102183.16
2022-10-06T08:47:29.573Z,102180.44
2022-10-06T08:49:57.462Z,102184.00
2022-10-06T08:52:42.098Z,102185.75
2022-10-06T08:55:28.928Z,102185.75
2022-10-06T08:58:13.973Z,102188.38
2022-10-06T09:00:40.673Z,102192.81
2022-10-06T09:03:16.770Z,102202.59
2022-10-06T09:05:44.293Z,102210.63
2022-10-06T09:08:44.616Z,102212.38
2022-10-06T09:12:19.161Z,102214.16
2022-10-06T09:14:51.247Z,102207.94
2022-10-06T09:17:24.964Z,102214.19
2022-10-06T09:19:57.207Z,102218.66
2022-10-06T09:22:24.390Z,102224.03
2022-10-06T09:24:55.968Z,102228.50
2022-10-06T09:27:28.479Z,102224.88
2022-10-06T09:29:55.395Z,102219.50
2022-10-06T09:32:24.326Z,102236.47
2022-10-06T09:34:55.923Z,102232.84
2022-10-06T09:37:23.559Z,102228.31
2022-10-06T09:39:51.748Z,102229.16
2022-10-06T09:42:26.427Z,102234.47
2022-10-06T09:45:07.497Z,102235.34
2022-10-06T09:47:39.597Z,102239.78
2022-10-06T09:50:12.231Z,102236.19
2022-10-06T09:52:40.252Z,102237.94
2022-10-06T09:55:15.355Z,102246.88
2022-10-06T09:57:50.324Z,102246.84
2022-10-06T10:00:30.389Z,102245.09
2022-10-06T10:02:59.507Z,102262.09
2022-10-06T10:05:27.475Z,102254.00
2022-10-06T10:08:01.968Z,102260.16
2022-10-06T10:10:28.736Z,102279.84
2022-10-06T10:12:57.264Z,102277.16
2022-10-06T10:15:33.059Z,102271.84
2022-10-06T10:18:03.884Z,102288.84
2022-10-06T10:20:54.559Z,102288.88
2022-10-06T10:23:43.409Z,102288.91
2022-10-06T10:26:17.939Z,102294.28
2022-10-06T10:29:10.880Z,102288.03
2022-10-06T10:32:17.470Z,102287.13
2022-10-06T10:34:50.247Z,102292.50
2022-10-06T10:37:37.203Z,102296.97
2022-10-06T10:40:28.678Z,102293.44
2022-10-06T10:43:06.998Z,102289.91
2022-10-06T10:45:35.790Z,102290.78
2022-10-06T10:48:49.043Z,102297.09
2022-10-06T10:51:27.544Z,102296.16
2022-10-06T10:54:11.089Z,102296.16
2022-10-06T10:56:37.912Z,102297.91
2022-10-06T10:59:37.830Z,102293.41
2022-10-06T11:02:21.684Z,102296.97
2022-10-06T11:04:54.761Z,102298.72
2022-10-06T11:07:46.871Z,102285.31
2022-10-06T11:10:34.731Z,102287.06
2022-10-06T11:13:11.081Z,102289.69
2022-10-06T11:16:39.982Z,102297.72
2022-10-06T11:19:16.007Z,102307.59
2022-10-06T11:21:50.012Z,102302.25
2022-10-06T11:24:32.166Z,102299.59
2022-10-06T11:27:26.397Z,102301.38
2022-10-06T11:30:07.196Z,102304.06
2022-10-06T11:32:46.590Z,102304.91
2022-10-06T11:35:30.465Z,102304.84
2022-10-06T11:38:00.707Z,102307.47
2022-10-06T11:40:38.653Z,102301.22
2022-10-06T11:43:15.185Z,102315.50
2022-10-06T11:46:23.507Z,102311.00
2022-10-06T11:48:50.362Z,102313.63
2022-10-06T11:51:20.950Z,102318.97
2022-10-06T11:53:47.826Z,102315.34
2022-10-06T11:56:17.549Z,102313.50
2022-10-06T11:58:56.561Z,102309.84
2022-10-06T12:01:33.476Z,102304.41
2022-10-06T12:04:09.452Z,102312.38
2022-10-06T12:06:47.553Z,102306.91
2022-10-06T12:09:32.530Z,102309.53
2022-10-06T12:12:23.084Z,102312.13
2022-10-06T12:18:11.318Z,102297.72
2022-10-06T12:20:55.597Z,102303.06
2022-10-06T12:23:43.476Z,102298.56
2022-10-06T12:26:32.705Z,102309.28
2022-10-06T12:29:29.722Z,102294.03
2022-10-06T12:32:19.543Z,102295.84
2022-10-06T12:35:23.837Z,102309.28
2022-10-06T12:37:54.411Z,102296.72
2022-10-06T12:40:40.504Z,102300.31
2022-10-06T12:43:19.626Z,102294.09
2022-10-06T12:45:57.246Z,102298.56
2022-10-06T12:48:40.106Z,102294.16
2022-10-06T12:51:06.891Z,102301.31
2022-10-06T12:53:43.380Z,102295.06
2022-10-06T12:56:28.265Z,102308.44
2022-10-06T12:58:55.839Z,102309.34
2022-10-06T13:01:23.111Z,102307.53
2022-10-06T13:03:52.110Z,102306.63
2022-10-06T13:06:22.509Z,102319.22
2022-10-06T13:09:05.769Z,102305.81
2022-10-06T13:11:32.807Z,102311.19
2022-10-06T13:14:28.965Z,102306.69
2022-10-06T13:16:58.483Z,102314.72
2022-10-06T13:19:28.233Z,102312.00
2022-10-06T13:21:55.127Z,102316.50
2022-10-06T13:24:26.609Z,102302.16
2022-10-06T13:26:54.105Z,102309.38
2022-10-06T13:29:25.446Z,102315.66
2022-10-06T13:31:53.675Z,102309.41
2022-10-06T13:34:29.172Z,102302.22
2022-10-06T13:36:56.291Z,102295.94
2022-10-06T13:39:25.625Z,102307.53
2022-10-06T13:41:56.024Z,102299.47
2022-10-06T13:44:41.628Z,102311.13
2022-10-06T13:47:19.891Z,102314.66
2022-10-06T13:50:02.740Z,102302.97
2022-10-06T13:52:36.061Z,102305.66
2022-10-06T13:55:04.187Z,102310.06
2022-10-06T13:57:44.863Z,102306.44
2022-10-06T14:00:14.808Z,102309.13
2022-10-06T14:02:46.999Z,102309.13
2022-10-06T14:05:24.130Z,102318.06
2022-10-06T14:07:51.205Z,102311.81
2022-10-06T14:10:31.323Z,102310.00
2022-10-06T14:13:01.950Z,102316.28
2022-10-06T14:15:31.281Z,102311.81
2022-10-06T14:18:02.954Z,102314.50
2022-10-06T14:20:49.936Z,102307.34
2022-10-06T14:23:38.979Z,102308.28
2022-10-06T14:26:05.816Z,102311.03
2022-10-06T14:28:32.615Z,102312.81
2022-10-06T14:30:59.432Z,102314.63
2022-10-06T14:33:26.519Z,102308.34
2022-10-06T14:35:53.294Z,102298.50
2022-10-06T14:38:20.198Z,102312.81
2022-10-06T14:40:46.979Z,102308.34
2022-10-06T14:43:13.795Z,102313.75
2022-10-06T14:45:42.111Z,102314.66
2022-10-06T14:48:09.616Z,102302.09
2022-10-06T14:50:36.374Z,102297.63
2022-10-06T14:53:03.687Z,102308.41
2022-10-06T14:55:31.157Z,102303.97
2022-10-06T14:58:00.362Z,102305.78
2022-10-06T15:00:28.831Z,102307.59
2022-10-06T15:02:56.442Z,102313.03
2022-10-06T15:05:24.078Z,102307.66
2022-10-06T15:08:09.756Z,102311.28
2022-10-06T15:10:38.820Z,102307.75
2022-10-06T15:13:08.365Z,102309.59
2022-10-06T15:15:36.197Z,102308.72
2022-10-06T15:18:03.693Z,102307.88
2022-10-06T15:20:30.440Z,102307.88
2022-10-06T15:22:57.300Z,102318.63
2022-10-06T15:25:42.699Z,102314.19
2022-10-06T15:28:31.769Z,102316.03
2022-10-06T15:30:58.659Z,102316.97
2022-10-06T15:33:28.154Z,102323.28
2022-10-06T15:36:20.608Z,102322.41
2022-10-06T15:38:47.458Z,102318.88
2022-10-06T15:41:14.198Z,102312.66
2022-10-06T15:43:57.056Z,102326.09
2022-10-06T15:46:32.464Z,102318.97
2022-10-06T15:49:02.071Z,102329.75
2022-10-06T15:51:31.003Z,102331.53
2022-10-06T15:53:58.417Z,102325.31
2022-10-06T15:56:26.724Z,102323.56
2022-10-06T15:58:53.711Z,102323.56
2022-10-06T16:01:26.585Z,102328.09
2022-10-06T16:03:54.253Z,102323.63
2022-10-06T16:06:40.394Z,102329.94
2022-10-06T16:09:09.367Z,102324.59
2022-10-06T16:11:36.303Z,102330.00
2022-10-06T16:14:03.363Z,102330.94
2022-10-06T16:16:30.269Z,102332.75
2022-10-06T16:18:57.077Z,102333.69
2022-10-06T16:21:23.920Z,102329.25
2022-10-06T16:23:52.422Z,102328.41
2022-10-06T16:26:19.768Z,102329.34
2022-10-06T16:28:46.731Z,102335.66
2022-10-06T16:31:13.627Z,102331.22
2022-10-06T16:33:41.202Z,102335.75
2022-10-06T16:36:08.010Z,102327.72
2022-10-06T16:38:34.816Z,102330.44
2022-10-06T16:41:02.205Z,102328.66
2022-10-06T16:43:34.264Z,102333.13
2022-10-06T16:46:09.536Z,102343.00
2022-10-06T16:48:41.751Z,102328.72
2022-10-06T16:51:15.866Z,102342.19
2022-10-06T16:53:44.845Z,102346.66
2022-10-06T16:56:20.008Z,102348.47
2022-10-06T16:59:11.735Z,102359.22
2022-10-06T17:01:38.543Z,102358.34
2022-10-06T17:04:10.732Z,102356.59
2022-10-06T17:06:40.506Z,102369.13
2022-10-06T17:09:14.348Z,102361.09
2022-10-06T17:11:46.891Z,102367.34
2022-10-06T17:14:14.271Z,102362.00
2022-10-06T17:16:43.103Z,102367.34
2022-10-06T17:19:11.409Z,102365.59
2022-10-06T17:21:48.084Z,102360.22
2022-10-06T17:24:19.873Z,102371.84
2022-10-06T17:26:48.939Z,102360.25
2022-10-06T17:29:21.351Z,102361.13
2022-10-06T17:31:56.252Z,102370.06
2022-10-06T17:34:26.552Z,102368.28
2022-10-06T17:36:57.692Z,102366.50
2022-10-06T17:39:24.700Z,102366.50
2022-10-06T17:41:53.178Z,102367.38
2022-10-06T17:44:27.257Z,102368.25
2022-10-06T17:46:58.823Z,102373.63
2022-10-06T17:49:26.195Z,102371.84
2022-10-06T17:51:54.645Z,102373.63
2022-10-06T17:54:23.697Z,102371.84
2022-10-06T17:56:52.847Z,102362.91
2022-10-06T17:59:22.390Z,102365.56
2022-10-06T18:01:51.136Z,102370.03
2022-10-06T18:04:18.551Z,102376.28
2022-10-06T18:06:46.191Z,102374.50
2022-10-06T18:09:13.120Z,102375.38
2022-10-06T18:11:41.975Z,102380.72
2022-10-06T18:14:12.107Z,102370.91
2022-10-06T18:16:41.902Z,102371.78
2022-10-06T18:19:10.725Z,102381.56
2022-10-06T18:21:41.333Z,102375.34
2022-10-06T18:24:12.842Z,102381.53
2022-10-06T18:26:41.897Z,102383.28
2022-10-06T18:29:09.872Z,102373.47
2022-10-06T18:31:37.927Z,102385.03
2022-10-06T18:36:52.380Z,102382.34
2022-10-06T18:39:19.318Z,102380.56
2022-10-06T18:41:47.512Z,102384.09
2022-10-06T18:44:34.306Z,102384.09
2022-10-06T18:47:19.671Z,102379.59
2022-10-06T18:49:46.506Z,102378.69
2022-10-06T18:52:13.884Z,102384.91
2022-10-06T18:54:44.466Z,102391.13
2022-10-06T18:57:11.400Z,102386.63
2022-10-06T18:59:38.402Z,102396.41
2022-10-06T19:02:05.329Z,102398.19
2022-10-06T19:04:35.048Z,102390.16
2022-10-06T19:07:02.508Z,102396.34
2022-10-06T19:09:29.409Z,102396.34
2022-10-06T19:11:57.886Z,102398.09
2022-10-06T19:14:31.181Z,102403.44
2022-10-06T19:17:02.282Z,102399.84
2022-10-06T19:19:30.217Z,102406.06
2022-10-06T19:21:59.640Z,102404.22
2022-10-06T19:24:38.611Z,102402.44
2022-10-06T19:27:11.287Z,102398.84
2022-10-06T19:29:45.933Z,102402.34
2022-10-06T19:32:19.535Z,102391.63
2022-10-06T19:34:47.106Z,102393.38
2022-10-06T19:37:14.755Z,102399.59
2022-10-06T19:39:43.845Z,102392.44
2022-10-06T19:42:33.593Z,102398.63
2022-10-06T19:45:00.620Z,102397.72
2022-10-06T19:47:27.784Z,102397.69
2022-10-06T19:49:58.864Z,102394.97
2022-10-06T19:52:27.723Z,102394.06
2022-10-06T19:54:54.547Z,102395.81
2022-10-06T19:57:21.377Z,102404.66
2022-10-06T19:59:48.147Z,102397.53
2022-10-06T20:02:14.904Z,102394.81
2022-10-06T20:04:41.820Z,102399.25
2022-10-06T20:07:09.218Z,102392.13
2022-10-06T20:09:36.059Z,102395.63
2022-10-06T20:12:02.917Z,102395.59
2022-10-06T20:14:29.710Z,102397.34
2022-10-06T20:16:57.451Z,102400.88
2022-10-06T20:19:25.488Z,102395.47
2022-10-06T20:21:53.054Z,102395.44
2022-10-06T20:24:24.912Z,102404.31
2022-10-06T20:26:52.641Z,102408.72
2022-10-06T20:29:22.540Z,102406.03
2022-10-06T20:31:51.766Z,102409.56
2022-10-06T20:34:21.284Z,102401.53
2022-10-06T20:36:51.853Z,102405.94
2022-10-06T20:39:40.847Z,102403.22
2022-10-06T20:42:12.228Z,102410.31
2022-10-06T20:44:42.210Z,102405.81
2022-10-06T20:47:10.387Z,102404.88
2022-10-06T20:49:37.513Z,102411.94
2022-10-06T20:52:05.431Z,102399.44
2022-10-06T20:54:34.917Z,102408.31
2022-10-06T20:57:06.368Z,102405.63
2022-10-06T20:59:35.396Z,102395.78
2022-10-06T21:02:03.331Z,102397.56
2022-10-06T21:04:30.506Z,102401.06
2022-10-06T21:06:57.869Z,102397.50
2022-10-06T21:09:25.025Z,102399.28
2022-10-06T21:11:52.532Z,102396.56
2022-10-06T21:14:20.015Z,102398.34
2022-10-06T21:16:48.137Z,102401.88
2022-10-06T21:19:16.870Z,102395.66
2022-10-06T21:21:46.147Z,102405.41
2022-10-06T21:24:13.108Z,102396.50
2022-10-06T21:26:42.806Z,102394.72
2022-10-06T21:29:13.020Z,102394.72
2022-10-06T21:31:40.007Z,102393.81
2022-10-06T21:34:07.680Z,102392.94
2022-10-06T21:36:34.655Z,102391.13
2022-10-06T21:39:01.815Z,102393.75
2022-10-06T21:41:37.048Z,102388.44
2022-10-06T21:44:03.870Z,102392.00
2022-10-06T21:46:33.235Z,102397.28
2022-10-06T21:49:01.467Z,102397.25
2022-10-06T21:51:29.942Z,102387.47
2022-10-06T21:53:58.214Z,102380.34
2022-10-06T21:56:27.120Z,102383.88
2022-10-06T21:58:55.874Z,102377.63
2022-10-06T22:01:28.198Z,102379.41
2022-10-06T22:03:57.545Z,102380.25
2022-10-06T22:06:24.533Z,102374.91
2022-10-06T22:08:51.437Z,102382.91
2022-10-06T22:11:38.718Z,102374.84
2022-10-06T22:14:10.249Z,102386.34
2022-10-06T22:16:38.065Z,102372.97
2022-10-06T22:19:07.497Z,102382.72
2022-10-06T22:21:39.522Z,102378.19
2022-10-06T22:24:08.994Z,102379.03
2022-10-06T22:26:37.644Z,102375.44
2022-10-06T22:29:06.186Z,102379.84
2022-10-06T22:31:33.210Z,102371.78
2022-10-06T22:34:04.556Z,102371.78
2022-10-06T22:36:32.025Z,102362.00
2022-10-06T22:38:58.956Z,102367.31
2022-10-06T22:41:26.038Z,102367.22
2022-10-06T22:43:57.572Z,102365.44
2022-10-06T22:46:28.589Z,102361.84
2022-10-06T22:48:56.054Z,102363.56
2022-10-06T22:51:23.313Z,102363.53
2022-10-06T22:53:57.951Z,102354.63
2022-10-06T22:56:26.667Z,102356.38
2022-10-06T22:58:53.666Z,102352.78
2022-10-06T23:01:21.074Z,102352.75
2022-10-06T23:03:48.144Z,102348.25
2022-10-06T23:06:16.793Z,102354.44
2022-10-06T23:08:44.078Z,102344.59
2022-10-06T23:11:14.525Z,102345.44
2022-10-06T23:13:43.318Z,102345.41
2022-10-06T23:16:14.681Z,102342.72
2022-10-06T23:18:42.993Z,102332.94
2022-10-06T23:21:21.694Z,102343.50
2022-10-06T23:23:52.926Z,102336.44
2022-10-06T23:26:20.795Z,102323.91
2022-10-06T23:28:58.809Z,102325.69
2022-10-06T23:31:26.607Z,102317.66
2022-10-06T23:33:54.650Z,102309.63
2022-10-06T23:36:21.584Z,102314.91
2022-10-06T23:38:48.511Z,102315.72
2022-10-06T23:41:15.863Z,102318.34
2022-10-06T23:43:42.883Z,102311.22
2022-10-06T23:46:09.935Z,102313.81
2022-10-06T23:48:37.520Z,102312.91
2022-10-06T23:51:07.445Z,102316.38
2022-10-06T23:53:35.024Z,102319.00
2022-10-06T23:56:02.306Z,102307.44
2022-10-06T23:58:29.351Z,102307.38
